Time;durP1;ratioP1;P1;durP2;ratioP2;P2;SDS_P1;SDS_P2;PMS_P1;PMS_P2;Temp;Humidity;BMP_temperature;BMP_pressure;BME280_temperature;BME280_humidity;BME280_pressure;Samples;Min_cycle;Max_cycle;Signal;HPM_P1;HPM_P2
2022/02/20 00:01:20;;;;;;;7.03;2.33;;;;;;;3.65;79.84;99290.13;4909772;29;20140;-56
2022/02/20 00:03:46;;;;;;;10.98;1.98;;;;;;;3.70;79.44;99283.34;4908663;29;20480;-55
2022/02/20 00:06:16;;;;;;;4.55;1.90;;;;;;;3.76;79.69;99262.94;4911356;29;20054;-56
2022/02/20 00:08:43;;;;;;;8.05;2.25;;;;;;;3.85;80.41;99263.03;4908865;29;20552;-52
2022/02/20 00:11:10;;;;;;;7.43;2.92;;;;;;;3.93;80.21;99259.72;4911127;29;20108;-53
2022/02/20 00:13:36;;;;;;;7.07;2.58;;;;;;;3.97;80.27;99246.09;4910061;29;20056;-53
2022/02/20 00:16:05;;;;;;;7.65;3.17;;;;;;;4.03;80.23;99246.16;4907914;29;20052;-54
2022/02/20 00:18:31;;;;;;;6.32;2.92;;;;;;;4.09;81.11;99235.97;4910750;29;20480;-56
2022/02/20 00:20:58;;;;;;;8.18;2.60;;;;;;;4.17;81.43;99227.50;4910304;29;20056;-55
2022/02/20 00:23:25;;;;;;;6.72;2.50;;;;;;;4.23;81.87;99219.88;4908205;29;20201;-50
2022/02/20 00:25:52;;;;;;;8.65;2.95;;;;;;;4.25;81.51;99210.47;4910257;29;20055;-51
2022/02/20 00:28:18;;;;;;;7.90;2.55;;;;;;;4.28;81.42;99200.25;4912075;29;20048;-55
2022/02/20 00:30:45;;;;;;;9.95;2.72;;;;;;;4.32;81.23;99196.03;4907357;29;20087;-53
2022/02/20 00:33:13;;;;;;;5.05;2.35;;;;;;;4.36;81.05;99184.97;4908547;29;20524;-54
2022/02/20 00:35:40;;;;;;;13.02;2.22;;;;;;;4.40;80.84;99189.28;4908266;29;20421;-51
2022/02/20 00:38:08;;;;;;;16.10;4.15;;;;;;;4.45;81.27;99187.59;4910836;29;20190;-51
2022/02/20 00:40:35;;;;;;;11.18;3.72;;;;;;;4.51;81.58;99181.66;4907588;29;20052;-55
2022/02/20 00:43:02;;;;;;;23.63;4.30;;;;;;;4.56;81.57;99187.69;4910654;29;20059;-56
2022/02/20 00:45:29;;;;;;;9.00;1.75;;;;;;;4.63;81.55;99180.91;4908775;29;20417;-52
2022/02/20 00:47:56;;;;;;;18.70;4.28;;;;;;;4.71;81.88;99179.25;4909523;29;20836;-50
2022/02/20 00:50:24;;;;;;;16.70;3.45;;;;;;;4.80;81.86;99178.44;4910136;29;20473;-55
2022/02/20 00:52:51;;;;;;;16.58;2.92;;;;;;;4.89;82.74;99173.38;4907267;29;20697;-58
2022/02/20 00:55:18;;;;;;;13.13;1.40;;;;;;;4.99;82.76;99168.28;4903729;29;20084;-54
2022/02/20 00:57:45;;;;;;;18.52;2.53;;;;;;;5.10;82.95;99171.78;4905339;29;20103;-53
2022/02/20 01:00:14;;;;;;;9.55;2.35;;;;;;;5.20;83.26;99166.72;4903008;29;20048;-63
2022/02/20 01:02:41;;;;;;;15.98;3.47;;;;;;;5.29;82.43;99166.75;4908857;29;20051;-54
2022/02/20 01:05:09;;;;;;;7.22;2.53;;;;;;;5.35;82.00;99161.66;4906312;29;20147;-57
2022/02/20 01:07:36;;;;;;;14.27;2.70;;;;;;;5.44;83.11;99159.97;4906151;29;20073;-55
2022/02/20 01:10:05;;;;;;;17.80;3.25;;;;;;;5.49;81.73;99142.84;4908335;29;20056;-55
2022/02/20 01:12:32;;;;;;;13.65;2.10;;;;;;;5.58;83.75;99158.31;4908039;29;20048;-56
2022/02/20 01:14:59;;;;;;;18.77;3.67;;;;;;;5.63;83.22;99161.75;4910800;29;20055;-57
2022/02/20 01:17:26;;;;;;;15.77;3.10;;;;;;;5.69;82.88;99155.78;4911065;29;20054;-55
2022/02/20 01:19:55;;;;;;;14.15;1.35;;;;;;;5.75;81.86;99154.94;4908288;29;20052;-56
2022/02/20 01:22:23;;;;;;;14.68;1.20;;;;;;;5.80;81.95;99137.78;4905631;29;20067;-55
2022/02/20 01:24:51;;;;;;;14.70;3.08;;;;;;;5.88;83.41;99141.22;4909166;29;20052;-52
2022/02/20 01:27:19;;;;;;;11.65;4.07;;;;;;;5.91;83.25;99146.38;4908040;29;20056;-55
2022/02/20 01:29:47;;;;;;;18.50;3.63;;;;;;;5.99;83.89;99140.41;4906621;29;20091;-55
2022/02/20 01:32:16;;;;;;;19.85;1.27;;;;;;;6.04;83.42;99137.03;4909011;29;20088;-55
2022/02/20 01:34:44;;;;;;;11.38;1.50;;;;;;;6.09;83.48;99138.72;4910806;29;20430;-55
2022/02/20 01:37:12;;;;;;;15.32;3.20;;;;;;;6.13;83.67;99130.16;4910486;29;20071;-51
2022/02/20 01:39:38;;;;;;;16.23;1.83;;;;;;;6.19;81.96;99129.31;4908036;29;20111;-59
2022/02/20 01:42:05;;;;;;;15.07;2.53;;;;;;;6.24;82.25;99132.72;4908573;29;20040;-54
2022/02/20 01:44:33;;;;;;;9.00;0.82;;;;;;;6.30;82.81;99137.88;4909354;29;20056;-52
2022/02/20 01:47:04;;;;;;;17.88;2.72;;;;;;;6.33;83.94;99127.59;4907660;29;20056;-56
2022/02/20 01:49:31;;;;;;;9.38;1.10;;;;;;;6.38;83.19;99137.91;4905247;29;20095;-54
2022/02/20 01:51:58;;;;;;;18.00;1.35;;;;;;;6.42;83.09;99127.59;4908930;29;20374;-53
2022/02/20 01:54:25;;;;;;;11.65;2.33;;;;;;;6.47;82.87;99124.16;4911536;29;20047;-57
2022/02/20 01:56:53;;;;;;;6.63;2.47;;;;;;;6.53;81.91;99113.88;4906899;29;20056;-57
2022/02/20 01:59:22;;;;;;;6.03;2.42;;;;;;;6.58;82.75;99106.16;4908225;29;20740;-54
2022/02/20 02:01:48;;;;;;;5.32;1.88;;;;;;;6.61;82.45;99107.00;4909567;29;20052;-54
2022/02/20 02:04:15;;;;;;;5.80;1.92;;;;;;;6.69;82.80;99099.28;4909363;29;20107;-55
2022/02/20 02:06:42;;;;;;;3.42;0.52;;;;;;;6.76;83.67;99084.66;4911529;29;20056;-53
2022/02/20 02:09:08;;;;;;;9.30;0.60;;;;;;;6.83;83.87;99081.22;4907747;29;20100;-52
2022/02/20 02:11:35;;;;;;;7.50;0.85;;;;;;;6.89;83.13;99090.63;4909914;29;20107;-56
2022/02/20 02:14:02;;;;;;;7.53;2.05;;;;;;;6.95;82.56;99090.59;4908755;29;20107;-50
2022/02/20 02:16:28;;;;;;;5.93;0.90;;;;;;;7.00;83.68;99083.75;4908642;29;20103;-53
2022/02/20 02:18:56;;;;;;;13.40;1.23;;;;;;;7.09;84.50;99077.66;4906933;29;20048;-54
2022/02/20 02:21:22;;;;;;;10.65;1.33;;;;;;;7.14;83.38;99052.78;4908109;29;20044;-54
2022/02/20 02:23:49;;;;;;;3.10;1.85;;;;;;;7.20;83.93;99055.31;4912264;29;20051;-54
2022/02/20 02:26:18;;;;;;;12.88;1.20;;;;;;;7.27;82.45;99055.28;4912631;29;20060;-55
2022/02/20 02:28:45;;;;;;;8.10;0.98;;;;;;;7.30;83.55;99040.66;4909611;29;20666;-58
2022/02/20 02:31:14;;;;;;;8.77;0.93;;;;;;;7.36;82.29;99047.50;4912641;29;20080;-54
2022/02/20 02:33:40;;;;;;;4.97;1.52;;;;;;;7.40;82.77;99054.34;4911868;29;20055;-53
2022/02/20 02:36:08;;;;;;;9.25;1.35;;;;;;;7.44;82.18;99058.59;4913116;29;20052;-57
2022/02/20 02:38:35;;;;;;;8.70;2.42;;;;;;;7.50;82.58;99060.28;4910657;29;20507;-54
2022/02/20 02:41:05;;;;;;;10.15;2.75;;;;;;;7.56;83.54;99051.66;4912997;29;20918;-57
2022/02/20 02:43:33;;;;;;;8.07;0.98;;;;;;;7.61;82.82;99055.09;4911823;29;20074;-53
2022/02/20 02:46:00;;;;;;;8.88;2.38;;;;;;;7.65;82.60;99061.94;4911356;29;20052;-55
2022/02/20 02:48:27;;;;;;;12.65;1.23;;;;;;;7.69;83.92;99063.63;4908967;29;20052;-55
2022/02/20 02:50:54;;;;;;;6.90;1.60;;;;;;;7.75;83.42;99054.13;4912939;29;20551;-56
2022/02/20 02:53:22;;;;;;;14.38;1.58;;;;;;;7.79;82.85;99050.66;4913315;29;20104;-56
2022/02/20 02:55:51;;;;;;;14.55;1.10;;;;;;;7.82;82.58;99048.94;4908094;29;20115;-56
2022/02/20 02:58:20;;;;;;;10.90;1.30;;;;;;;7.88;83.07;99032.56;4910650;29;20507;-54
2022/02/20 03:00:47;;;;;;;11.80;1.88;;;;;;;7.89;84.08;99034.25;4911490;29;20600;-54
2022/02/20 03:03:14;;;;;;;8.35;1.27;;;;;;;7.92;82.95;99023.94;4913346;29;20063;-52
2022/02/20 03:05:41;;;;;;;16.52;1.70;;;;;;;7.93;83.78;99024.75;4911438;29;20067;-56
2022/02/20 03:08:07;;;;;;;12.60;1.63;;;;;;;7.96;82.57;99023.03;4911623;29;20457;-53
2022/02/20 03:10:34;;;;;;;12.18;3.25;;;;;;;7.98;82.78;99016.13;4910807;29;20068;-57
2022/02/20 03:13:01;;;;;;;11.05;1.20;;;;;;;8.01;82.56;99011.81;4909012;29;20066;-54
2022/02/20 03:15:28;;;;;;;12.95;1.30;;;;;;;8.04;83.27;99012.63;4910979;29;20056;-58
2022/02/20 03:17:55;;;;;;;9.57;1.20;;;;;;;8.06;83.09;98994.56;4907642;29;20511;-59
2022/02/20 03:20:21;;;;;;;15.10;1.63;;;;;;;8.08;83.79;98988.53;4908386;29;20047;-57
2022/02/20 03:22:48;;;;;;;9.60;1.50;;;;;;;8.08;84.08;98977.38;4910135;29;20040;-57
2022/02/20 03:25:14;;;;;;;11.60;2.65;;;;;;;8.10;82.78;98988.50;4908631;29;20052;-57
2022/02/20 03:27:41;;;;;;;15.25;2.85;;;;;;;8.13;82.78;98990.19;4913549;29;20056;-55
2022/02/20 03:30:09;;;;;;;11.90;1.38;;;;;;;8.12;83.60;98999.69;4911020;29;20048;-56
2022/02/20 03:32:35;;;;;;;15.15;1.75;;;;;;;8.15;83.53;99002.22;4907593;29;20048;-55
2022/02/20 03:35:02;;;;;;;8.13;0.98;;;;;;;8.18;83.86;98994.44;4906598;29;20060;-56
2022/02/20 03:37:29;;;;;;;18.42;1.67;;;;;;;8.20;83.86;98986.69;4910588;29;21665;-55
2022/02/20 03:39:56;;;;;;;17.63;2.47;;;;;;;8.23;83.19;98996.97;4908718;29;20421;-53
2022/02/20 03:42:22;;;;;;;10.27;2.45;;;;;;;8.23;83.97;98987.53;4908691;29;20143;-55
2022/02/20 03:44:49;;;;;;;10.13;1.25;;;;;;;8.25;83.00;98978.91;4908746;29;20092;-56
2022/02/20 03:47:16;;;;;;;17.88;2.45;;;;;;;8.26;82.65;98976.31;4908503;29;20044;-57
2022/02/20 03:49:42;;;;;;;11.18;1.85;;;;;;;8.28;82.75;98968.56;4908824;29;20044;-55
2022/02/20 03:52:09;;;;;;;11.38;1.48;;;;;;;8.28;82.81;98974.56;4910452;29;20274;-55
2022/02/20 03:54:35;;;;;;;13.55;1.52;;;;;;;8.31;83.79;98973.69;4907421;29;20520;-57
2022/02/20 03:57:02;;;;;;;20.00;2.15;;;;;;;8.33;83.05;98977.09;4914159;29;20060;-54
2022/02/20 03:59:29;;;;;;;14.93;1.83;;;;;;;8.32;82.81;98980.56;4909500;29;20052;-54
2022/02/20 04:01:55;;;;;;;15.02;1.65;;;;;;;8.36;83.39;98982.25;4910568;29;20104;-56
2022/02/20 04:04:22;;;;;;;17.98;1.90;;;;;;;8.37;83.43;98986.50;4910101;29;20055;-56
2022/02/20 04:06:51;;;;;;;15.63;1.88;;;;;;;8.38;82.91;98985.66;4908702;29;20059;-58
2022/02/20 04:09:18;;;;;;;14.18;1.50;;;;;;;8.41;82.69;98984.78;4907732;29;20546;-58
2022/02/20 04:11:45;;;;;;;11.85;1.30;;;;;;;8.40;82.69;98983.91;4909504;29;20418;-56
2022/02/20 04:14:11;;;;;;;24.88;2.22;;;;;;;8.42;82.13;98987.34;4905768;29;20554;-55
2022/02/20 04:16:38;;;;;;;10.50;1.45;;;;;;;8.44;81.89;98972.69;4907929;29;20468;-56
2022/02/20 04:19:04;;;;;;;13.10;1.65;;;;;;;8.41;82.52;98957.22;4907120;29;20512;-59
2022/02/20 04:21:31;;;;;;;18.48;2.33;;;;;;;8.41;82.49;98962.38;4906437;29;20048;-57
2022/02/20 04:23:58;;;;;;;13.13;1.98;;;;;;;8.42;82.40;98946.06;4903465;29;20092;-58
2022/02/20 04:26:24;;;;;;;17.73;1.25;;;;;;;8.43;82.39;98932.28;4910801;29;20099;-55
2022/02/20 04:28:51;;;;;;;18.58;1.98;;;;;;;8.43;82.24;98945.19;4907835;29;20092;-54
2022/02/20 04:31:18;;;;;;;20.35;2.25;;;;;;;8.41;82.49;98934.00;4909226;29;20044;-54
2022/02/20 04:33:46;;;;;;;15.98;2.03;;;;;;;8.43;81.23;98927.13;4904911;29;20108;-56
2022/02/20 04:36:13;;;;;;;14.10;1.55;;;;;;;8.41;81.86;98922.84;4910590;29;20547;-55
2022/02/20 04:38:39;;;;;;;14.82;1.42;;;;;;;8.37;81.06;98906.53;4907864;29;20587;-56
2022/02/20 04:41:06;;;;;;;17.55;1.80;;;;;;;8.39;81.13;98909.97;4907904;29;20055;-59
2022/02/20 04:43:33;;;;;;;18.13;2.03;;;;;;;8.39;80.98;98920.28;4902179;29;20119;-55
2022/02/20 04:46:00;;;;;;;16.20;2.40;;;;;;;8.40;80.54;98911.66;4905043;29;20047;-55
2022/02/20 04:48:27;;;;;;;18.77;1.67;;;;;;;8.41;81.14;98903.03;4905775;29;20055;-56
2022/02/20 04:50:54;;;;;;;18.38;2.70;;;;;;;8.40;80.52;98898.75;4905872;29;20052;-55
2022/02/20 04:53:21;;;;;;;13.80;1.85;;;;;;;8.39;80.98;98899.66;4907784;29;20510;-54
2022/02/20 04:55:48;;;;;;;10.90;1.92;;;;;;;8.39;80.56;98894.47;4910795;29;20115;-54
2022/02/20 04:58:14;;;;;;;19.27;3.42;;;;;;;8.39;80.58;98891.91;4904840;29;20044;-58
2022/02/20 05:00:41;;;;;;;21.90;2.42;;;;;;;8.38;79.87;98885.03;4908260;29;20047;-54
2022/02/20 05:03:08;;;;;;;24.08;2.40;;;;;;;8.39;80.25;98873.84;4907280;29;20056;-59
2022/02/20 05:05:37;;;;;;;12.15;1.80;;;;;;;8.40;80.28;98879.84;4908400;29;20048;-54
2022/02/20 05:08:05;;;;;;;22.13;2.60;;;;;;;8.40;79.97;98874.66;4906483;29;20055;-55
2022/02/20 05:10:32;;;;;;;18.80;1.70;;;;;;;8.40;79.83;98864.34;4906555;29;20083;-57
2022/02/20 05:12:58;;;;;;;19.88;4.65;;;;;;;8.40;79.08;98865.22;4907303;29;20100;-58
2022/02/20 05:15:25;;;;;;;15.45;2.40;;;;;;;8.39;80.12;98873.84;4905976;29;20047;-58
2022/02/20 05:17:52;;;;;;;18.98;2.33;;;;;;;8.41;78.84;98866.91;4906049;29;20063;-55
2022/02/20 05:20:18;;;;;;;17.17;2.15;;;;;;;8.41;79.51;98864.34;4906627;29;20040;-55
2022/02/20 05:22:45;;;;;;;25.23;3.60;;;;;;;8.40;78.57;98869.50;4907607;29;20051;-56
2022/02/20 05:25:12;;;;;;;18.75;2.10;;;;;;;8.42;79.57;98863.47;4909450;29;20044;-58
2022/02/20 05:27:44;;;;;;;19.55;3.97;;;;;;;8.42;78.80;98868.66;4909216;29;20051;-52
2022/02/20 05:30:13;;;;;;;23.48;2.92;;;;;;;8.43;78.97;98877.22;4909150;29;20548;-56
2022/02/20 05:32:40;;;;;;;13.30;1.90;;;;;;;8.43;79.58;98862.59;4906219;29;20060;-55
2022/02/20 05:35:07;;;;;;;13.57;1.65;;;;;;;8.44;79.08;98886.69;4908228;29;20052;-55
2022/02/20 05:37:43;;;;;;;18.23;1.98;;;;;;;8.42;78.71;98889.28;4905863;29;20548;-53
2022/02/20 05:40:11;;;;;;;21.95;2.35;;;;;;;8.43;78.93;98870.34;4901692;29;20111;-55
2022/02/20 05:42:38;;;;;;;13.07;1.50;;;;;;;8.45;77.82;98884.06;4904598;29;20095;-55
2022/02/20 05:45:06;;;;;;;18.65;2.40;;;;;;;8.48;78.16;98891.78;4906387;29;20540;-53
2022/02/20 05:47:33;;;;;;;21.77;1.83;;;;;;;8.49;77.85;98879.72;4906360;29;20051;-57
2022/02/20 05:50:00;;;;;;;18.30;1.58;;;;;;;8.49;78.26;98866.81;4905758;29;20128;-57
2022/02/20 05:52:27;;;;;;;22.60;2.65;;;;;;;8.49;77.88;98854.75;4908921;29;20496;-54
2022/02/20 05:54:53;;;;;;;16.20;2.00;;;;;;;8.54;76.88;98871.97;4906508;29;20058;-56
2022/02/20 05:57:21;;;;;;;22.65;3.13;;;;;;;8.57;77.34;98869.31;4909153;29;20058;-58
2022/02/20 05:59:47;;;;;;;18.23;2.83;;;;;;;8.56;76.92;98859.88;4915500;29;20476;-59
2022/02/20 06:02:15;;;;;;;14.35;1.85;;;;;;;8.59;77.27;98852.09;4911557;29;20051;-56
2022/02/20 06:04:42;;;;;;;18.75;2.65;;;;;;;8.61;76.49;98847.75;4909363;29;20063;-55
2022/02/20 06:07:10;;;;;;;26.58;3.03;;;;;;;8.62;77.27;98839.16;4910680;29;20056;-54
2022/02/20 06:09:36;;;;;;;13.82;1.73;;;;;;;8.61;76.88;98840.88;4909710;29;20048;-56
2022/02/20 06:12:03;;;;;;;18.75;2.22;;;;;;;8.62;77.05;98844.31;4911271;29;20083;-56
2022/02/20 06:14:30;;;;;;;15.48;1.92;;;;;;;8.63;77.90;98840.84;4910141;29;20064;-56
2022/02/20 06:16:57;;;;;;;21.52;2.58;;;;;;;8.59;76.87;98855.56;4911850;29;20044;-59
2022/02/20 06:19:24;;;;;;;19.48;2.58;;;;;;;8.64;76.83;98852.88;4911009;29;20685;-53
2022/02/20 06:21:51;;;;;;;20.52;1.67;;;;;;;8.63;77.17;98851.19;4911179;29;20055;-55
2022/02/20 06:24:17;;;;;;;19.67;2.00;;;;;;;8.65;77.03;98843.41;4909286;29;20053;-58
2022/02/20 06:26:44;;;;;;;21.42;1.95;;;;;;;8.63;77.57;98850.31;4910168;29;20104;-57
2022/02/20 06:29:12;;;;;;;15.75;1.90;;;;;;;8.63;77.06;98856.34;4912667;29;20099;-58
2022/02/20 06:31:40;;;;;;;16.95;1.95;;;;;;;8.63;76.71;98850.31;4911337;29;20056;-55
2022/02/20 06:34:07;;;;;;;18.33;1.92;;;;;;;8.63;77.60;98856.34;4914347;29;20044;-57
2022/02/20 06:36:35;;;;;;;16.75;1.65;;;;;;;8.63;77.94;98855.47;4911330;29;20059;-58
2022/02/20 06:39:03;;;;;;;17.35;2.40;;;;;;;8.62;77.99;98844.31;4908838;29;20066;-53
2022/02/20 06:41:30;;;;;;;15.20;2.20;;;;;;;8.60;78.31;98856.38;4909750;29;20317;-57
2022/02/20 06:43:57;;;;;;;18.20;3.22;;;;;;;8.61;78.14;98845.19;4909584;29;20450;-55
2022/02/20 06:46:24;;;;;;;20.60;2.63;;;;;;;8.61;77.80;98845.19;4911203;29;20060;-55
2022/02/20 06:48:50;;;;;;;17.27;2.08;;;;;;;8.60;78.29;98840.91;4908943;29;20052;-55
2022/02/20 06:51:17;;;;;;;21.05;2.53;;;;;;;8.56;78.93;98844.41;4908482;29;20055;-50
2022/02/20 06:53:44;;;;;;;23.55;2.67;;;;;;;8.55;78.00;98842.69;4912337;29;20481;-56
2022/02/20 06:56:10;;;;;;;18.83;2.13;;;;;;;8.54;78.75;98841.84;4907367;29;20056;-57
2022/02/20 06:58:37;;;;;;;18.27;2.08;;;;;;;8.54;78.15;98821.19;4908520;29;20043;-56
2022/02/20 07:01:04;;;;;;;17.73;2.42;;;;;;;8.54;78.14;98826.34;4907128;29;20047;-56
2022/02/20 07:03:31;;;;;;;17.65;2.10;;;;;;;8.53;78.16;98828.91;4906515;29;20091;-56
2022/02/20 07:05:58;;;;;;;19.33;2.17;;;;;;;8.49;79.02;98828.13;4909901;29;20044;-56
2022/02/20 07:08:24;;;;;;;28.73;2.50;;;;;;;8.48;78.83;98822.09;4908100;29;20140;-55
2022/02/20 07:10:51;;;;;;;13.20;2.10;;;;;;;8.51;78.31;98830.69;4911346;29;20084;-53
2022/02/20 07:13:18;;;;;;;19.70;2.65;;;;;;;8.49;79.31;98828.13;4909869;29;20052;-55
2022/02/20 07:15:44;;;;;;;17.60;2.83;;;;;;;8.51;78.10;98831.50;4910534;29;20060;-57
2022/02/20 07:18:11;;;;;;;21.00;2.67;;;;;;;8.51;79.00;98841.84;4907628;29;20044;-57
2022/02/20 07:20:37;;;;;;;11.13;1.70;;;;;;;8.52;78.58;98832.38;4908503;29;20060;-54
2022/02/20 07:23:04;;;;;;;19.80;2.90;;;;;;;8.57;78.11;98820.28;4911456;29;20048;-56
2022/02/20 07:25:30;;;;;;;17.95;2.28;;;;;;;8.58;78.93;98806.53;4905186;29;20059;-57
2022/02/20 07:27:57;;;;;;;15.40;2.15;;;;;;;8.60;78.87;98812.50;4916172;29;20044;-54
2022/02/20 07:30:28;;;;;;;23.23;3.58;;;;;;;8.61;78.75;98806.47;4910961;29;20055;-59
2022/02/20 07:32:56;;;;;;;19.10;1.55;;;;;;;8.61;78.85;98801.28;4912493;29;20127;-58
2022/02/20 07:35:23;;;;;;;16.20;1.70;;;;;;;8.64;78.79;98810.75;4909298;29;20056;-54
2022/02/20 07:37:50;;;;;;;16.45;1.70;;;;;;;8.68;78.84;98817.56;4907822;29;20817;-59
2022/02/20 07:40:17;;;;;;;17.30;2.13;;;;;;;8.67;78.85;98810.69;4911376;29;20048;-57
2022/02/20 07:42:44;;;;;;;17.58;3.67;;;;;;;8.68;78.40;98808.06;4910188;29;20072;-58
2022/02/20 07:45:11;;;;;;;14.20;2.38;;;;;;;8.69;78.73;98808.94;4909754;29;20071;-56
2022/02/20 07:47:57;;;;;;;15.73;2.38;;;;;;;8.68;79.55;98813.25;4908897;29;20209;-56
2022/02/20 07:50:26;;;;;;;17.75;2.42;;;;;;;8.72;78.24;98804.56;4911722;29;20107;-57
2022/02/20 07:52:54;;;;;;;19.98;2.22;;;;;;;8.79;78.47;98809.66;4911701;29;20079;-55
2022/02/20 07:55:21;;;;;;;15.07;2.22;;;;;;;8.79;79.24;98799.31;4910146;29;20056;-55
2022/02/20 07:57:48;;;;;;;12.18;1.85;;;;;;;8.82;79.03;98801.88;4908819;29;20899;-56
2022/02/20 08:00:17;;;;;;;12.50;1.90;;;;;;;8.84;79.39;98797.50;4907142;29;20048;-57
2022/02/20 08:02:45;;;;;;;14.88;2.10;;;;;;;8.86;78.72;98785.44;4908224;29;20116;-54
2022/02/20 08:05:12;;;;;;;20.83;2.75;;;;;;;8.90;79.03;98791.41;4906539;29;20056;-53
2022/02/20 08:07:39;;;;;;;16.17;4.82;;;;;;;8.92;79.18;98794.81;4908196;29;20052;-59
2022/02/20 08:10:06;;;;;;;17.88;2.00;;;;;;;8.94;79.15;98778.44;4902844;29;20124;-57
2022/02/20 08:12:33;;;;;;;20.10;3.03;;;;;;;8.96;79.28;98781.84;4898438;29;20411;-55
2022/02/20 08:15:00;;;;;;;17.45;2.38;;;;;;;8.98;78.83;98799.88;4909662;29;20058;-57
2022/02/20 08:17:28;;;;;;;15.10;3.05;;;;;;;9.00;78.59;98780.06;4908640;29;20048;-56
2022/02/20 08:19:54;;;;;;;14.30;2.83;;;;;;;9.07;78.94;98762.72;4908389;29;20493;-58
2022/02/20 08:22:22;;;;;;;20.50;2.15;;;;;;;9.09;78.75;98776.47;4909799;29;20056;-58
2022/02/20 08:24:50;;;;;;;12.90;2.13;;;;;;;9.12;79.57;98776.44;4908252;29;20052;-56
2022/02/20 08:27:16;;;;;;;25.35;3.08;;;;;;;9.14;78.54;98772.06;4917068;29;20063;-55
2022/02/20 08:29:43;;;;;;;22.42;3.28;;;;;;;9.20;78.94;98763.34;4909044;29;20075;-56
2022/02/20 08:32:10;;;;;;;16.20;2.08;;;;;;;9.19;78.74;98783.16;4912364;29;20091;-56
2022/02/20 08:34:36;;;;;;;17.15;2.55;;;;;;;9.23;79.31;98763.31;4900096;29;20148;-56
2022/02/20 08:37:05;;;;;;;11.02;3.33;;;;;;;9.23;78.28;98758.97;4903602;29;20060;-51
2022/02/20 08:39:32;;;;;;;11.98;1.77;;;;;;;9.25;78.67;98758.94;4908302;29;20052;-55
2022/02/20 08:41:58;;;;;;;18.30;3.03;;;;;;;9.28;78.37;98760.66;4914972;29;20040;-57
2022/02/20 08:44:25;;;;;;;18.17;2.22;;;;;;;9.30;78.50;98769.22;4906858;29;20047;-59
2022/02/20 08:46:52;;;;;;;12.95;1.70;;;;;;;9.31;78.77;98771.78;4907982;29;20143;-55
2022/02/20 08:49:18;;;;;;;14.93;2.25;;;;;;;9.35;78.24;98749.28;4909543;29;20056;-54
2022/02/20 08:51:45;;;;;;;23.15;2.78;;;;;;;9.37;78.42;98745.81;4906442;29;20056;-57
2022/02/20 08:54:11;;;;;;;14.18;2.35;;;;;;;9.39;78.45;98758.69;4906700;29;20055;-56
2022/02/20 08:56:38;;;;;;;14.10;2.00;;;;;;;9.41;78.47;98759.53;4907325;29;20059;-57
2022/02/20 08:59:05;;;;;;;9.38;2.10;;;;;;;9.43;78.27;98775.88;4908818;29;20580;-59
2022/02/20 09:01:31;;;;;;;14.05;1.98;;;;;;;9.45;77.83;98763.75;4898456;29;20584;-57
2022/02/20 09:04:02;;;;;;;12.02;2.30;;;;;;;9.51;78.34;98758.47;4903592;29;20456;-57
2022/02/20 09:06:31;;;;;;;14.00;3.00;;;;;;;9.53;78.19;98766.22;4910579;29;20396;-57
2022/02/20 09:08:58;;;;;;;7.10;1.13;;;;;;;9.54;78.10;98741.19;4909133;29;20052;-56
2022/02/20 09:11:26;;;;;;;10.20;1.98;;;;;;;9.59;78.22;98754.91;4905350;29;20064;-59
2022/02/20 09:13:53;;;;;;;14.02;2.25;;;;;;;9.61;78.11;98768.63;4909065;29;20052;-57
2022/02/20 09:16:19;;;;;;;9.43;1.60;;;;;;;9.63;78.41;98751.38;4908194;29;20115;-58
2022/02/20 09:18:46;;;;;;;13.07;1.95;;;;;;;9.66;77.93;98756.47;4904115;29;20571;-45
2022/02/20 09:21:13;;;;;;;13.75;2.40;;;;;;;9.68;78.08;98754.72;4908870;29;20052;-47
2022/02/20 09:23:40;;;;;;;5.57;1.42;;;;;;;9.71;77.93;98749.47;4908145;29;20602;-48
2022/02/20 09:26:08;;;;;;;13.02;1.50;;;;;;;9.74;78.61;98744.25;4907781;29;20099;-51
2022/02/20 09:28:35;;;;;;;6.72;1.40;;;;;;;9.80;78.19;98737.25;4910293;29;20055;-48
2022/02/20 09:31:03;;;;;;;12.00;1.73;;;;;;;9.83;77.70;98747.53;4906653;29;20107;-51
2022/02/20 09:33:30;;;;;;;8.25;1.27;;;;;;;9.87;78.24;98733.66;4908457;29;20080;-47
2022/02/20 09:35:56;;;;;;;8.02;1.13;;;;;;;9.93;77.99;98724.91;4908901;29;20059;-51
2022/02/20 09:38:23;;;;;;;6.65;1.45;;;;;;;9.96;78.21;98737.78;4913215;29;20488;-50
2022/02/20 09:40:50;;;;;;;5.88;1.77;;;;;;;9.97;77.78;98723.97;4911920;29;20410;-50
2022/02/20 09:43:17;;;;;;;9.90;1.00;;;;;;;9.99;77.32;98743.72;4906257;29;20111;-52
2022/02/20 09:45:46;;;;;;;10.30;1.10;;;;;;;10.01;77.86;98726.47;4912264;29;20060;-48
2022/02/20 09:48:14;;;;;;;3.90;0.73;;;;;;;10.04;77.95;98730.72;4906992;29;20386;-52
2022/02/20 09:50:41;;;;;;;4.85;0.90;;;;;;;10.02;77.86;98725.56;4914817;29;20056;-46
2022/02/20 09:53:08;;;;;;;4.05;1.13;;;;;;;10.07;78.10;98730.66;4910483;29;20044;-50
2022/02/20 09:55:35;;;;;;;10.75;1.75;;;;;;;10.10;77.02;98729.72;4912680;29;20052;-51
2022/02/20 09:58:02;;;;;;;8.80;0.77;;;;;;;10.14;77.50;98718.41;4910014;29;20084;-50
2022/02/20 10:00:29;;;;;;;6.40;1.00;;;;;;;10.13;77.70;98714.09;4905834;29;20056;-49
2022/02/20 10:03:01;;;;;;;5.80;0.90;;;;;;;10.15;77.28;98727.88;4910846;29;20048;-50
2022/02/20 10:05:28;;;;;;;5.72;1.13;;;;;;;10.16;77.91;98724.38;4908131;29;20052;-50
2022/02/20 10:07:55;;;;;;;6.22;0.77;;;;;;;10.18;77.67;98716.59;4913156;29;20053;-52
2022/02/20 10:10:25;;;;;;;9.23;1.27;;;;;;;10.21;77.36;98714.81;4909145;29;20103;-50
2022/02/20 10:12:57;;;;;;;4.55;0.80;;;;;;;10.22;77.29;98713.91;4907572;29;20056;-51
2022/02/20 10:15:28;;;;;;;10.93;2.10;;;;;;;10.25;76.89;98707.81;4911869;29;20103;-48
2022/02/20 10:18:13;;;;;;;7.55;1.02;;;;;;;10.26;77.31;98710.38;4911945;29;20055;-49
2022/02/20 10:20:40;;;;;;;4.30;0.65;;;;;;;10.28;77.48;98692.22;4911114;29;20052;-46
2022/02/20 10:23:09;;;;;;;9.18;1.48;;;;;;;10.32;77.70;98693.00;4907172;29;20060;-52
2022/02/20 10:25:42;;;;;;;2.60;0.75;;;;;;;10.34;77.59;98697.22;4904934;29;20052;-49
2022/02/20 10:28:10;;;;;;;5.50;1.17;;;;;;;10.34;77.70;98701.59;4909079;29;20044;-51
2022/02/20 10:30:37;;;;;;;4.82;1.00;;;;;;;10.36;77.69;98689.44;4909733;29;20052;-49
2022/02/20 10:33:11;;;;;;;6.85;0.68;;;;;;;10.36;77.30;98689.44;4915066;29;20056;-48
2022/02/20 10:35:41;;;;;;;5.03;0.70;;;;;;;10.37;77.16;98676.47;4910850;29;20048;-49
2022/02/20 10:38:12;;;;;;;4.78;0.90;;;;;;;10.40;77.23;98675.53;4910883;29;20104;-54
2022/02/20 10:40:41;;;;;;;3.60;0.98;;;;;;;10.43;77.24;98680.66;4915637;29;20084;-52
2022/02/20 10:43:22;;;;;;;4.05;0.90;;;;;;;10.46;77.05;98670.25;4906083;29;20052;-52
2022/02/20 10:45:49;;;;;;;5.47;1.10;;;;;;;10.46;77.46;98665.06;4910366;29;20041;-48
2022/02/20 10:48:17;;;;;;;2.60;0.73;;;;;;;10.49;77.65;98658.97;4910546;29;20126;-52
2022/02/20 10:50:55;;;;;;;7.10;1.15;;;;;;;10.53;76.80;98645.06;4913374;29;20805;-50
2022/02/20 10:53:30;;;;;;;3.70;1.13;;;;;;;10.56;77.24;98654.47;4929491;29;20530;-50
2022/02/20 10:56:00;;;;;;;7.38;1.27;;;;;;;10.58;77.09;98638.03;4926108;29;20067;-49
2022/02/20 10:58:30;;;;;;;9.70;0.75;;;;;;;10.60;77.48;98631.06;4910856;29;20044;-48
2022/02/20 11:00:58;;;;;;;4.20;0.55;;;;;;;10.65;77.36;98620.59;4908283;29;20071;-51
2022/02/20 11:03:27;;;;;;;4.88;0.70;;;;;;;10.68;76.67;98620.53;4915735;29;20052;-51
2022/02/20 11:05:55;;;;;;;4.80;0.63;;;;;;;10.73;76.97;98636.78;4906973;29;20075;-52
2022/02/20 11:08:24;;;;;;;7.13;1.02;;;;;;;10.74;76.95;98612.59;4910726;29;20559;-49
2022/02/20 11:10:51;;;;;;;6.57;0.80;;;;;;;10.77;77.07;98609.06;4925540;29;20056;-52
2022/02/20 11:13:19;;;;;;;4.55;1.00;;;;;;;10.78;76.89;98611.59;4910772;29;20052;-54
2022/02/20 11:15:54;;;;;;;3.13;0.60;;;;;;;10.83;76.92;98618.41;4914527;29;20135;-54
2022/02/20 11:18:22;;;;;;;6.03;1.00;;;;;;;10.87;75.78;98607.94;4910761;29;20504;-51
2022/02/20 11:20:51;;;;;;;4.45;0.60;;;;;;;10.92;76.21;98589.69;4914925;29;20148;-49
2022/02/20 11:23:24;;;;;;;4.30;0.77;;;;;;;10.96;76.28;98587.84;4911716;29;20485;-49
2022/02/20 11:25:53;;;;;;;3.53;0.57;;;;;;;11.02;75.86;98596.28;4909880;29;20115;-47
2022/02/20 11:28:19;;;;;;;3.25;0.60;;;;;;;11.07;76.09;98587.56;4913833;29;20052;-49
2022/02/20 11:30:46;;;;;;;4.95;0.63;;;;;;;11.08;76.04;98581.47;4911552;29;20051;-48
2022/02/20 11:33:14;;;;;;;4.18;0.77;;;;;;;11.09;75.85;98570.22;4911787;29;20492;-47
2022/02/20 11:35:45;;;;;;;5.05;1.00;;;;;;;11.13;74.96;98564.03;4910535;29;20540;-47